Terminal Aerodrome Forecast
Issued by NWS Wilmington, NC

Home | Current Version | Previous Version | Text Only | Print | Product List | Glossary On
Versions: 1 2 3 4 5 6 7 8 9 10 11 12 13 14 15 16 17 18 19
000
FTUS42 KILM 191120
TAFFLO
TAF
KFLO 191120Z 1912/2012 04006KT P6SM SCT250
     FM192000 10004KT P6SM SCT200
     FM200300 11004KT P6SM BKN040 BKN150
     FM201000 12004KT 6SM -RA BKN030 OVC100=

USA.gov is the U.S. government's official web portal to all federal, state and local government web resources and services.